Time;durP1;ratioP1;P1;durP2;ratioP2;P2;SDS_P1;SDS_P2;PMS_P1;PMS_P2;Temp;Humidity;BMP_temperature;BMP_pressure;BME280_temperature;BME280_humidity;BME280_pressure;Samples;Min_cycle;Max_cycle;Signal;HPM_P1;HPM_P2
2023/04/22 00:01:40;;;;;;;7.57;6.88;;;10.50;99.90;;;;;;5037411;28;20392;-66
2023/04/22 00:04:06;;;;;;;7.32;6.38;;;10.40;99.90;;;;;;5035743;28;20045;-66
2023/04/22 00:06:32;;;;;;;8.02;6.25;;;10.40;99.90;;;;;;5046566;28;20594;-66
2023/04/22 00:08:57;;;;;;;7.18;6.43;;;10.40;99.90;;;;;;5035262;28;20090;-63
2023/04/22 00:11:23;;;;;;;7.70;6.57;;;10.30;99.90;;;;;;5032670;28;20120;-66
2023/04/22 00:13:49;;;;;;;9.35;7.88;;;10.30;99.90;;;;;;5042263;28;20037;-67
2023/04/22 00:16:15;;;;;;;9.23;7.93;;;10.30;99.90;;;;;;5043691;28;20040;-65
2023/04/22 00:18:40;;;;;;;9.55;7.65;;;10.20;99.90;;;;;;5031775;28;20045;-65
2023/04/22 00:21:06;;;;;;;9.90;8.27;;;10.20;99.90;;;;;;5031872;28;20087;-64
2023/04/22 00:23:32;;;;;;;12.10;8.50;;;10.20;99.90;;;;;;5035726;28;20113;-64
2023/04/22 00:25:58;;;;;;;9.88;8.88;;;10.20;99.90;;;;;;5035469;28;20041;-64
2023/04/22 00:28:24;;;;;;;9.05;8.13;;;10.20;99.90;;;;;;5033083;28;20407;-64
2023/04/22 00:30:49;;;;;;;8.60;7.70;;;10.20;99.90;;;;;;5035900;28;20041;-63
2023/04/22 00:33:15;;;;;;;9.20;8.20;;;10.10;99.90;;;;;;5040954;28;20072;-63
2023/04/22 00:35:41;;;;;;;10.93;8.55;;;10.10;99.90;;;;;;5037915;28;20052;-64
2023/04/22 00:38:07;;;;;;;12.88;9.32;;;10.10;99.90;;;;;;5034991;28;20041;-66
2023/04/22 00:40:32;;;;;;;10.30;8.77;;;10.10;99.90;;;;;;5035672;28;20064;-64
2023/04/22 00:42:59;;;;;;;10.55;8.43;;;10.00;99.90;;;;;;5035401;28;20045;-64
2023/04/22 00:45:25;;;;;;;9.80;8.80;;;10.00;99.90;;;;;;5037541;28;20049;-65
2023/04/22 00:47:51;;;;;;;10.77;8.32;;;9.90;99.90;;;;;;5033657;28;20128;-64
2023/04/22 00:50:17;;;;;;;10.55;8.15;;;9.90;99.90;;;;;;5042363;28;20071;-64
2023/04/22 00:52:43;;;;;;;10.10;7.90;;;9.80;99.90;;;;;;5050691;28;20052;-66
2023/04/22 00:55:10;;;;;;;9.45;8.50;;;9.80;99.90;;;;;;5047528;28;20044;-63
2023/04/22 00:57:36;;;;;;;10.75;8.75;;;9.80;99.90;;;;;;5052708;28;20037;-65
2023/04/22 01:00:04;;;;;;;10.20;8.90;;;9.70;99.90;;;;;;5050580;28;20065;-64
2023/04/22 01:02:30;;;;;;;12.65;9.90;;;9.70;99.90;;;;;;5053647;28;20066;-65
2023/04/22 01:04:55;;;;;;;10.68;9.02;;;9.70;99.90;;;;;;5049501;28;20056;-65
2023/04/22 01:07:22;;;;;;;10.60;9.38;;;9.70;99.90;;;;;;5039722;28;20170;-67
2023/04/22 01:09:47;;;;;;;13.10;9.90;;;9.70;99.90;;;;;;5046123;28;20056;-64
2023/04/22 01:12:13;;;;;;;10.75;9.65;;;9.70;99.90;;;;;;5045963;28;20047;-65
2023/04/22 01:14:39;;;;;;;10.63;9.52;;;9.60;99.90;;;;;;5049318;28;20044;-64
2023/04/22 01:17:05;;;;;;;11.57;9.45;;;9.60;99.90;;;;;;5062283;28;20111;-64
2023/04/22 01:19:31;;;;;;;14.90;9.38;;;9.60;99.90;;;;;;5052133;28;20044;-64
2023/04/22 01:21:58;;;;;;;10.40;9.30;;;9.60;99.90;;;;;;5053209;28;20045;-64
2023/04/22 01:24:24;;;;;;;10.95;9.07;;;9.60;99.90;;;;;;5051683;28;20388;-65
2023/04/22 01:26:50;;;;;;;10.48;9.38;;;9.60;99.90;;;;;;5042388;28;20048;-66
2023/04/22 01:29:15;;;;;;;10.05;9.02;;;9.50;99.90;;;;;;5042805;28;20048;-63
2023/04/22 01:31:41;;;;;;;10.45;9.07;;;9.50;99.90;;;;;;5040956;28;21422;-64
2023/04/22 01:34:07;;;;;;;10.60;8.93;;;9.50;99.90;;;;;;5049033;28;20073;-64
2023/04/22 01:36:32;;;;;;;10.20;9.05;;;9.50;99.90;;;;;;5053515;28;20037;-65
2023/04/22 01:38:59;;;;;;;9.52;8.50;;;9.40;99.90;;;;;;5050557;28;20033;-65
2023/04/22 01:41:25;;;;;;;9.82;8.70;;;9.40;99.90;;;;;;5051970;28;20511;-66
2023/04/22 01:43:57;;;;;;;10.23;8.88;;;9.40;99.90;;;;;;5048414;28;20048;-67
2023/04/22 01:46:22;;;;;;;11.52;9.25;;;9.40;99.90;;;;;;5051538;28;20055;-63
2023/04/22 01:48:50;;;;;;;9.43;8.52;;;9.40;99.90;;;;;;5047869;28;20044;-66
2023/04/22 01:51:19;;;;;;;9.88;8.35;;;9.40;99.90;;;;;;5050363;28;20091;-66
2023/04/22 01:53:46;;;;;;;10.48;9.40;;;9.40;99.90;;;;;;5051043;28;20503;-63
2023/04/22 01:56:12;;;;;;;9.60;8.43;;;9.30;99.90;;;;;;5051895;28;20450;-65
2023/04/22 01:58:39;;;;;;;13.02;9.05;;;9.30;99.90;;;;;;5051197;28;20036;-64
2023/04/22 02:01:05;;;;;;;9.65;8.65;;;9.30;99.90;;;;;;5047335;28;20071;-64
2023/04/22 02:03:31;;;;;;;12.35;8.73;;;9.30;99.90;;;;;;5045551;28;20032;-64
2023/04/22 02:05:57;;;;;;;10.30;8.95;;;9.30;99.90;;;;;;5051046;28;20495;-66
2023/04/22 02:08:22;;;;;;;9.80;8.57;;;9.30;99.90;;;;;;5047264;28;20068;-63
2023/04/22 02:10:48;;;;;;;11.05;8.43;;;9.20;99.90;;;;;;5047288;28;20405;-66
2023/04/22 02:13:13;;;;;;;9.27;8.15;;;9.20;99.90;;;;;;5049425;28;20049;-62
2023/04/22 02:15:40;;;;;;;8.35;7.55;;;9.20;99.90;;;;;;5049895;28;20111;-63
2023/04/22 02:18:07;;;;;;;12.02;8.07;;;9.20;99.90;;;;;;5048827;28;20481;-66
2023/04/22 02:20:32;;;;;;;9.40;7.90;;;9.10;99.90;;;;;;5050660;28;20136;-65
2023/04/22 02:22:58;;;;;;;9.38;8.02;;;9.10;99.90;;;;;;5048766;28;20127;-63
2023/04/22 02:25:25;;;;;;;9.18;7.82;;;9.10;99.90;;;;;;5050950;28;20094;-66
2023/04/22 02:27:51;;;;;;;11.13;8.55;;;9.10;99.90;;;;;;5048714;28;20073;-64
2023/04/22 02:30:17;;;;;;;9.27;8.38;;;9.00;99.90;;;;;;5051058;28;20071;-64
2023/04/22 02:32:43;;;;;;;8.70;7.80;;;9.00;99.90;;;;;;5050238;28;20049;-65
2023/04/22 02:35:10;;;;;;;9.32;8.32;;;9.00;99.90;;;;;;5050605;28;20099;-67
2023/04/22 02:37:36;;;;;;;9.30;8.25;;;9.00;99.90;;;;;;5050633;28;20488;-65
2023/04/22 02:40:02;;;;;;;8.57;7.65;;;8.90;99.90;;;;;;5044631;28;20048;-64
2023/04/22 02:42:28;;;;;;;8.65;7.32;;;9.00;99.90;;;;;;5039828;28;20132;-65
2023/04/22 02:44:53;;;;;;;8.80;7.90;;;8.90;99.90;;;;;;5037116;28;20049;-64
2023/04/22 02:47:19;;;;;;;8.77;7.88;;;8.90;99.90;;;;;;5044115;28;20098;-63
2023/04/22 02:49:45;;;;;;;9.38;8.27;;;8.80;99.90;;;;;;5051868;28;20094;-66
2023/04/22 02:52:11;;;;;;;9.25;8.35;;;8.80;99.90;;;;;;5032791;28;20553;-62
2023/04/22 02:54:36;;;;;;;10.30;8.13;;;8.80;99.90;;;;;;5042577;28;20040;-66
2023/04/22 02:57:02;;;;;;;10.38;8.00;;;8.80;99.90;;;;;;5049128;28;20759;-67
2023/04/22 02:59:28;;;;;;;9.45;8.55;;;8.80;99.90;;;;;;5042179;28;20048;-65
2023/04/22 03:01:53;;;;;;;10.32;8.63;;;8.70;99.90;;;;;;5035391;28;20056;-64
2023/04/22 03:04:20;;;;;;;9.45;8.55;;;8.70;99.90;;;;;;5036825;28;20476;-65
2023/04/22 03:06:47;;;;;;;9.77;8.77;;;8.70;99.90;;;;;;5034368;28;20052;-65
2023/04/22 03:09:13;;;;;;;9.40;8.40;;;8.60;99.90;;;;;;5040772;28;20052;-65
2023/04/22 03:11:38;;;;;;;7.85;7.05;;;8.60;99.90;;;;;;5031173;28;20053;-64
2023/04/22 03:14:04;;;;;;;9.05;8.18;;;8.60;99.90;;;;;;5041922;28;21838;-66
2023/04/22 03:16:30;;;;;;;11.38;8.15;;;8.50;99.90;;;;;;5035458;28;20044;-65
2023/04/22 03:18:55;;;;;;;9.20;7.97;;;8.50;99.90;;;;;;5047800;28;20033;-64
2023/04/22 03:21:21;;;;;;;8.40;7.57;;;8.40;99.90;;;;;;5040660;28;20033;-65
2023/04/22 03:23:47;;;;;;;8.38;7.57;;;8.40;99.90;;;;;;5045384;28;20088;-63
2023/04/22 03:26:12;;;;;;;8.88;7.97;;;8.40;99.90;;;;;;5034792;28;20104;-65
2023/04/22 03:28:39;;;;;;;9.75;8.40;;;8.40;99.90;;;;;;5037437;28;20128;-63
2023/04/22 03:31:04;;;;;;;8.98;8.07;;;8.40;99.90;;;;;;5034399;28;20063;-65
2023/04/22 03:33:30;;;;;;;8.48;7.68;;;8.30;99.90;;;;;;5052677;28;20124;-66
2023/04/22 03:35:56;;;;;;;9.02;8.13;;;8.30;99.90;;;;;;5038008;28;20079;-62
2023/04/22 03:38:21;;;;;;;8.95;7.88;;;8.30;99.90;;;;;;5032556;28;20128;-64
2023/04/22 03:40:47;;;;;;;8.80;7.63;;;8.30;99.90;;;;;;5045988;28;20063;-65
2023/04/22 03:43:13;;;;;;;8.35;7.55;;;8.30;99.90;;;;;;5036684;28;20480;-65
2023/04/22 03:45:38;;;;;;;7.97;7.22;;;8.30;99.90;;;;;;5040198;28;20075;-63
2023/04/22 03:48:04;;;;;;;8.48;7.60;;;8.30;99.90;;;;;;5038230;28;20116;-63
2023/04/22 03:50:30;;;;;;;8.45;7.55;;;8.30;99.90;;;;;;5036404;28;20133;-65
2023/04/22 03:52:56;;;;;;;7.70;6.97;;;8.20;99.90;;;;;;5033833;28;20400;-63
2023/04/22 03:55:21;;;;;;;8.23;7.43;;;8.20;99.90;;;;;;5048505;28;20465;-64
2023/04/22 03:57:47;;;;;;;9.02;8.13;;;8.20;99.90;;;;;;5044216;28;20530;-62
2023/04/22 04:00:13;;;;;;;8.90;8.00;;;8.20;99.90;;;;;;5039445;28;20047;-66
2023/04/22 04:02:38;;;;;;;9.10;8.20;;;8.20;99.90;;;;;;5034835;28;20048;-65
2023/04/22 04:05:05;;;;;;;10.82;8.63;;;8.20;99.90;;;;;;5035569;28;20044;-65
2023/04/22 04:07:30;;;;;;;9.13;8.23;;;8.20;99.90;;;;;;5049595;28;20036;-65
2023/04/22 04:09:56;;;;;;;10.13;9.13;;;8.20;99.90;;;;;;5047748;28;20041;-65
2023/04/22 04:12:21;;;;;;;10.60;8.63;;;8.20;99.90;;;;;;5035733;28;20091;-66
2023/04/22 04:14:47;;;;;;;10.70;9.60;;;8.20;99.90;;;;;;5044231;28;20041;-65
2023/04/22 04:17:14;;;;;;;10.20;9.10;;;8.20;99.90;;;;;;5046885;28;20033;-63
2023/04/22 04:19:39;;;;;;;10.27;9.18;;;8.20;99.90;;;;;;5048925;28;20124;-64
2023/04/22 04:22:05;;;;;;;11.52;10.02;;;8.20;99.90;;;;;;5045983;28;20462;-63
2023/04/22 04:24:31;;;;;;;13.00;10.70;;;8.20;99.90;;;;;;5048813;28;20053;-66
2023/04/22 04:26:57;;;;;;;11.27;10.07;;;8.20;99.90;;;;;;5047754;28;20495;-63
2023/04/22 04:29:23;;;;;;;11.05;9.95;;;8.20;99.90;;;;;;5047334;28;20480;-61
2023/04/22 04:31:48;;;;;;;10.65;9.55;;;8.20;99.90;;;;;;5048810;28;20041;-64
2023/04/22 04:34:14;;;;;;;10.90;9.73;;;8.20;99.90;;;;;;5048423;28;20045;-66
2023/04/22 04:36:40;;;;;;;10.68;9.57;;;8.30;99.90;;;;;;5048500;28;20049;-65
2023/04/22 04:39:07;;;;;;;10.88;9.60;;;8.20;99.90;;;;;;5044993;28;20552;-65
2023/04/22 04:41:34;;;;;;;11.13;9.95;;;8.20;99.90;;;;;;5048523;28;20108;-64
2023/04/22 04:44:00;;;;;;;10.65;9.52;;;8.20;99.90;;;;;;5039451;28;20041;-64
2023/04/22 04:46:28;;;;;;;10.95;9.85;;;8.20;99.90;;;;;;5045552;28;20045;-65
2023/04/22 04:48:57;;;;;;;11.00;9.32;;;8.20;99.90;;;;;;5041355;28;20084;-64
2023/04/22 04:51:23;;;;;;;10.68;9.38;;;8.20;99.90;;;;;;5035363;28;20037;-64
2023/04/22 04:53:48;;;;;;;11.20;9.60;;;8.20;99.90;;;;;;5033831;28;20079;-64
2023/04/22 04:56:15;;;;;;;13.57;9.63;;;8.20;99.90;;;;;;5033337;28;20045;-62
2023/04/22 04:58:41;;;;;;;11.98;9.95;;;8.20;99.90;;;;;;5038749;28;20041;-64
2023/04/22 05:01:07;;;;;;;13.05;11.18;;;8.20;99.90;;;;;;5037448;28;20138;-65
2023/04/22 05:03:32;;;;;;;11.65;10.45;;;8.20;99.90;;;;;;5060153;28;20056;-64
2023/04/22 05:05:58;;;;;;;11.80;10.27;;;8.20;99.90;;;;;;5046016;28;20037;-63
2023/04/22 05:08:24;;;;;;;11.20;9.95;;;8.20;99.90;;;;;;5031170;28;20442;-63
2023/04/22 05:10:49;;;;;;;11.57;10.38;;;8.20;99.90;;;;;;5040808;28;20074;-62
2023/04/22 05:13:15;;;;;;;12.90;11.57;;;8.20;99.90;;;;;;5049620;28;20073;-62
2023/04/22 05:15:41;;;;;;;11.43;10.23;;;8.30;99.90;;;;;;5046973;28;20033;-64
2023/04/22 05:18:08;;;;;;;12.38;11.18;;;8.30;99.90;;;;;;5046990;28;20124;-65
2023/04/22 05:20:33;;;;;;;12.98;10.48;;;8.30;99.90;;;;;;5047406;28;20464;-64
2023/04/22 05:22:59;;;;;;;12.70;11.40;;;8.40;99.90;;;;;;5047036;28;20037;-64
2023/04/22 05:25:25;;;;;;;13.63;11.50;;;8.40;99.90;;;;;;5044057;28;20480;-63
2023/04/22 05:27:50;;;;;;;13.48;12.00;;;8.40;99.90;;;;;;5060275;28;20037;-64
2023/04/22 05:30:16;;;;;;;13.68;12.27;;;8.50;99.90;;;;;;5027905;28;20057;-64
2023/04/22 05:32:41;;;;;;;14.90;13.30;;;8.50;99.90;;;;;;5042859;28;20174;-62
2023/04/22 05:35:08;;;;;;;14.57;12.63;;;8.60;99.90;;;;;;5046185;28;20091;-65
2023/04/22 05:37:33;;;;;;;14.05;12.65;;;8.60;99.90;;;;;;5043445;28;20124;-63
2023/04/22 05:39:59;;;;;;;14.55;12.98;;;8.70;99.90;;;;;;5047949;28;20488;-66
2023/04/22 05:42:25;;;;;;;14.55;12.77;;;8.80;99.90;;;;;;5047700;28;20171;-62
2023/04/22 05:44:50;;;;;;;16.05;12.75;;;8.80;99.90;;;;;;5052038;28;20048;-66
2023/04/22 05:47:16;;;;;;;14.30;12.80;;;8.90;99.90;;;;;;5048417;28;20565;-63
2023/04/22 05:49:41;;;;;;;15.10;13.40;;;9.00;99.90;;;;;;5049061;28;20175;-65
2023/04/22 05:52:07;;;;;;;14.95;13.02;;;9.00;99.90;;;;;;5048756;28;20059;-66
2023/04/22 05:54:33;;;;;;;15.32;13.73;;;9.10;99.90;;;;;;5048730;28;20033;-65
2023/04/22 05:56:58;;;;;;;15.10;13.48;;;9.20;99.90;;;;;;5048657;28;20053;-64
2023/04/22 05:59:25;;;;;;;15.38;13.77;;;9.20;99.90;;;;;;5051029;28;20047;-64
2023/04/22 06:01:50;;;;;;;15.57;13.98;;;9.20;99.90;;;;;;5047916;28;20036;-64
2023/04/22 06:04:17;;;;;;;15.55;13.80;;;9.30;99.90;;;;;;5046777;28;20102;-65
2023/04/22 06:06:43;;;;;;;16.38;14.57;;;9.40;99.90;;;;;;5050548;28;20047;-63
2023/04/22 06:09:09;;;;;;;15.93;14.35;;;9.40;99.90;;;;;;5047358;28;20454;-65
2023/04/22 06:11:35;;;;;;;15.45;13.85;;;9.50;99.90;;;;;;5049803;28;20041;-66
2023/04/22 06:14:00;;;;;;;16.38;14.68;;;9.60;99.90;;;;;;5045350;28;20132;-66
2023/04/22 06:16:26;;;;;;;15.70;14.10;;;9.60;99.90;;;;;;5048267;28;20040;-63
2023/04/22 06:18:52;;;;;;;17.98;14.55;;;9.70;99.90;;;;;;5050260;28;20039;-63
2023/04/22 06:21:19;;;;;;;16.13;14.43;;;9.70;99.90;;;;;;5032593;28;20045;-63
2023/04/22 06:23:45;;;;;;;15.23;13.73;;;9.80;99.90;;;;;;5048421;28;20112;-65
2023/04/22 06:26:11;;;;;;;15.77;13.68;;;9.90;99.90;;;;;;5050538;28;20131;-66
2023/04/22 06:28:36;;;;;;;16.50;13.65;;;10.00;99.90;;;;;;5047376;28;20033;-64
2023/04/22 06:31:02;;;;;;;15.50;13.82;;;10.10;99.90;;;;;;5048516;28;20118;-64
2023/04/22 06:33:28;;;;;;;14.80;13.30;;;10.10;99.90;;;;;;5044882;28;20049;-62
2023/04/22 06:35:53;;;;;;;16.50;14.90;;;10.20;99.90;;;;;;5035486;28;20131;-65
2023/04/22 06:38:19;;;;;;;16.20;13.63;;;10.30;99.90;;;;;;5041682;28;20068;-64
2023/04/22 06:40:45;;;;;;;14.15;12.75;;;10.30;99.90;;;;;;5047352;28;20038;-64
2023/04/22 06:43:10;;;;;;;15.65;14.05;;;10.40;99.90;;;;;;5046473;28;20053;-65
2023/04/22 06:45:36;;;;;;;15.63;13.82;;;10.40;99.90;;;;;;5047271;28;20037;-64
2023/04/22 06:48:02;;;;;;;16.13;14.07;;;10.50;99.90;;;;;;5047923;28;20063;-66
2023/04/22 06:50:27;;;;;;;15.80;13.93;;;10.50;99.90;;;;;;5047244;28;20140;-65
2023/04/22 06:52:53;;;;;;;15.23;13.50;;;10.60;99.90;;;;;;5043753;28;20052;-63
2023/04/22 06:55:19;;;;;;;14.93;13.43;;;10.70;99.90;;;;;;5045696;28;20493;-63
2023/04/22 06:57:44;;;;;;;14.98;13.43;;;10.70;99.90;;;;;;5049919;28;20171;-62
2023/04/22 07:00:11;;;;;;;14.63;13.13;;;10.80;99.90;;;;;;5032017;28;20050;-64
2023/04/22 07:02:36;;;;;;;15.15;13.65;;;10.90;99.90;;;;;;5048419;28;20047;-64
2023/04/22 07:05:02;;;;;;;15.13;13.65;;;11.00;99.90;;;;;;5045778;28;20044;-65
2023/04/22 07:07:28;;;;;;;13.80;12.38;;;11.00;99.90;;;;;;5048150;28;20061;-62
2023/04/22 07:09:53;;;;;;;15.93;13.48;;;11.10;99.90;;;;;;5046621;28;20064;-63
2023/04/22 07:12:19;;;;;;;14.70;13.25;;;11.10;99.90;;;;;;5050189;28;20041;-63
2023/04/22 07:14:45;;;;;;;17.58;13.65;;;11.20;99.90;;;;;;5049284;28;20048;-65
2023/04/22 07:17:11;;;;;;;15.15;13.52;;;11.30;99.90;;;;;;5048569;28;20032;-64
2023/04/22 07:19:38;;;;;;;15.38;13.88;;;11.30;99.90;;;;;;5061237;28;20418;-62
2023/04/22 07:22:05;;;;;;;16.42;14.73;;;11.40;99.90;;;;;;5065913;28;20042;-65
2023/04/22 07:24:31;;;;;;;16.55;14.05;;;11.50;99.90;;;;;;5062781;28;20098;-66
2023/04/22 07:26:57;;;;;;;14.48;13.05;;;11.50;99.90;;;;;;5048993;28;20506;-63
2023/04/22 07:29:22;;;;;;;17.75;13.52;;;11.50;99.90;;;;;;5046509;28;20080;-65
2023/04/22 07:31:48;;;;;;;15.48;13.88;;;11.60;99.90;;;;;;5047654;28;20033;-64
2023/04/22 07:34:14;;;;;;;15.18;13.60;;;11.60;99.90;;;;;;5048699;28;20083;-65
2023/04/22 07:36:40;;;;;;;16.45;14.75;;;11.70;99.90;;;;;;5064214;28;20047;-66
2023/04/22 07:39:06;;;;;;;15.55;13.88;;;11.80;99.90;;;;;;5049097;28;20045;-64
2023/04/22 07:41:32;;;;;;;14.20;12.70;;;11.80;99.90;;;;;;5047153;28;20051;-63
2023/04/22 07:43:58;;;;;;;13.52;12.13;;;11.90;99.90;;;;;;5047658;28;20056;-65
2023/04/22 07:46:24;;;;;;;14.77;13.18;;;12.00;99.90;;;;;;5048733;28;20558;-64
2023/04/22 07:48:50;;;;;;;14.93;13.32;;;12.20;99.90;;;;;;5047379;28;20052;-63
2023/04/22 07:51:16;;;;;;;15.80;12.65;;;12.40;99.90;;;;;;5048162;28;20081;-65
2023/04/22 07:53:41;;;;;;;14.48;12.20;;;12.60;99.90;;;;;;5046948;28;20055;-66
2023/04/22 07:56:07;;;;;;;12.40;11.18;;;12.70;99.90;;;;;;5049067;28;20123;-63
2023/04/22 07:58:33;;;;;;;14.10;12.57;;;12.80;99.90;;;;;;5048842;28;20463;-63
2023/04/22 08:00:58;;;;;;;14.93;12.88;;;13.00;99.90;;;;;;5048492;28;20078;-64
2023/04/22 08:03:24;;;;;;;13.55;11.75;;;13.10;99.90;;;;;;5030721;28;20567;-66
2023/04/22 08:05:50;;;;;;;13.63;11.65;;;13.20;99.90;;;;;;5047839;28;20454;-65
2023/04/22 08:08:16;;;;;;;12.80;11.50;;;13.30;99.90;;;;;;5065239;28;20055;-65
2023/04/22 08:10:42;;;;;;;12.23;10.93;;;13.40;99.90;;;;;;5045189;28;20396;-66
2023/04/22 08:13:07;;;;;;;12.05;10.75;;;13.50;99.90;;;;;;5065262;28;20175;-64
2023/04/22 08:15:33;;;;;;;11.50;10.40;;;13.70;99.90;;;;;;5048443;28;20195;-65
2023/04/22 08:17:58;;;;;;;11.85;10.65;;;13.90;99.90;;;;;;5047896;28;20128;-64
2023/04/22 08:20:24;;;;;;;12.05;10.75;;;13.90;99.90;;;;;;5044193;28;20074;-64
2023/04/22 08:22:51;;;;;;;12.48;11.18;;;14.00;99.90;;;;;;5048802;28;20395;-65
2023/04/22 08:25:17;;;;;;;11.52;10.32;;;14.10;99.90;;;;;;5047279;28;20048;-66
2023/04/22 08:27:42;;;;;;;11.93;10.50;;;14.20;99.90;;;;;;5048689;28;20051;-64
2023/04/22 08:30:08;;;;;;;11.93;10.18;;;14.20;99.90;;;;;;5047924;28;20040;-63
2023/04/22 08:32:34;;;;;;;12.48;10.40;;;14.30;99.90;;;;;;5045745;28;20439;-64
2023/04/22 08:35:00;;;;;;;11.43;10.32;;;14.40;99.90;;;;;;5047004;28;20049;-64
2023/04/22 08:37:26;;;;;;;11.40;10.13;;;14.50;99.90;;;;;;5048012;28;20148;-66
2023/04/22 08:39:52;;;;;;;11.80;10.20;;;14.80;99.90;;;;;;5047802;28;20036;-63
2023/04/22 08:42:20;;;;;;;11.25;10.05;;;15.00;99.90;;;;;;5047248;28;20051;-66
2023/04/22 08:44:46;;;;;;;10.45;9.45;;;15.40;99.90;;;;;;5050056;28;20041;-65
2023/04/22 08:47:14;;;;;;;11.57;9.32;;;15.70;99.90;;;;;;5049177;28;20033;-63
2023/04/22 08:49:41;;;;;;;12.18;8.98;;;15.80;99.90;;;;;;5048707;28;20488;-66
2023/04/22 08:52:08;;;;;;;9.75;8.85;;;16.00;99.90;;;;;;5029220;28;20053;-64
2023/04/22 08:54:36;;;;;;;9.60;8.48;;;16.30;99.90;;;;;;5048563;28;20112;-64
2023/04/22 08:57:03;;;;;;;9.98;8.52;;;16.30;99.90;;;;;;5046729;28;20045;-67
2023/04/22 08:59:30;;;;;;;8.80;7.95;;;16.40;99.90;;;;;;5031473;28;20088;-66
2023/04/22 09:01:57;;;;;;;9.95;8.38;;;16.50;99.90;;;;;;5049582;28;20075;-63
2023/04/22 09:04:23;;;;;;;10.00;8.23;;;16.60;99.90;;;;;;5047856;28;20033;-62
2023/04/22 09:06:49;;;;;;;11.07;8.40;;;16.70;99.90;;;;;;5045519;28;20502;-64
2023/04/22 09:09:14;;;;;;;9.40;8.40;;;16.90;99.90;;;;;;5046804;28;20040;-65
2023/04/22 09:11:41;;;;;;;10.05;8.30;;;17.10;99.90;;;;;;5048474;28;20046;-63
2023/04/22 09:14:06;;;;;;;8.73;7.80;;;17.20;99.90;;;;;;5045696;28;20048;-67
2023/04/22 09:16:43;;;;;;;9.90;8.88;;;17.40;99.90;;;;;;5050678;28;20078;-65
2023/04/22 09:19:12;;;;;;;10.52;7.75;;;17.60;99.90;;;;;;5052154;28;20103;-63
2023/04/22 09:21:39;;;;;;;9.00;8.07;;;17.60;99.90;;;;;;5051904;28;20041;-63
2023/04/22 09:24:07;;;;;;;9.13;7.68;;;17.60;99.90;;;;;;5053165;28;20040;-64
2023/04/22 09:26:37;;;;;;;9.18;7.50;;;17.40;99.90;;;;;;5047062;28;20051;-66
2023/04/22 09:29:08;;;;;;;8.70;7.80;;;17.30;99.90;;;;;;5049541;28;20403;-62
2023/04/22 09:31:36;;;;;;;8.80;7.22;;;17.30;99.90;;;;;;5050276;28;20055;-64
2023/04/22 09:34:03;;;;;;;8.10;7.30;;;17.50;99.90;;;;;;5051294;28;20052;-63
2023/04/22 09:36:29;;;;;;;7.43;6.63;;;17.60;99.90;;;;;;5053295;28;20045;-66
2023/04/22 09:38:58;;;;;;;8.82;7.00;;;17.50;99.90;;;;;;5053256;28;20032;-64
2023/04/22 09:41:29;;;;;;;8.00;7.20;;;17.50;99.90;;;;;;5051901;28;20072;-63
2023/04/22 09:43:56;;;;;;;7.78;6.97;;;17.60;99.90;;;;;;5053514;28;20045;-63
2023/04/22 09:46:23;;;;;;;11.40;7.32;;;17.60;99.90;;;;;;5051463;28;20037;-66
2023/04/22 09:48:50;;;;;;;7.70;6.90;;;17.60;99.90;;;;;;5052885;28;20059;-65
2023/04/22 09:51:16;;;;;;;7.63;6.90;;;17.70;99.90;;;;;;5051959;28;20044;-64
2023/04/22 09:53:42;;;;;;;8.18;6.97;;;17.90;99.90;;;;;;5068307;28;20050;-66
2023/04/22 09:56:08;;;;;;;8.75;7.82;;;18.10;99.90;;;;;;5052393;28;20045;-63
2023/04/22 09:58:38;;;;;;;10.57;6.80;;;18.30;99.90;;;;;;5052413;28;20480;-64
2023/04/22 10:01:04;;;;;;;7.78;6.97;;;18.50;99.90;;;;;;5051290;28;20048;-65
2023/04/22 10:03:30;;;;;;;7.35;6.65;;;18.70;99.90;;;;;;5049951;28;20044;-67
2023/04/22 10:05:57;;;;;;;8.00;6.85;;;19.00;99.90;;;;;;5047646;28;20052;-66
2023/04/22 10:08:23;;;;;;;9.45;7.22;;;19.00;99.90;;;;;;5064456;28;20084;-65
2023/04/22 10:10:49;;;;;;;7.68;6.78;;;19.20;99.90;;;;;;5051107;28;20088;-65
2023/04/22 10:13:14;;;;;;;8.10;6.85;;;19.30;99.90;;;;;;5050923;28;20076;-63
2023/04/22 10:15:49;;;;;;;7.63;6.72;;;19.50;99.90;;;;;;5051010;28;20039;-65
2023/04/22 10:18:20;;;;;;;8.60;6.00;;;19.90;99.90;;;;;;5049878;28;20032;-64
2023/04/22 10:20:47;;;;;;;6.53;5.93;;;20.00;99.90;;;;;;5051145;28;20094;-64
2023/04/22 10:23:22;;;;;;;7.47;6.45;;;20.10;99.90;;;;;;5050628;28;20052;-63
2023/04/22 10:25:51;;;;;;;9.85;5.95;;;20.20;99.90;;;;;;5050734;28;20045;-65
2023/04/22 10:28:19;;;;;;;6.95;5.90;;;20.40;99.90;;;;;;5049236;28;20049;-63
2023/04/22 10:30:45;;;;;;;6.88;6.18;;;20.50;99.90;;;;;;5050728;28;20041;-65
2023/04/22 10:33:20;;;;;;;7.97;6.40;;;20.60;99.90;;;;;;5050853;28;20044;-66
2023/04/22 10:36:07;;;;;;;6.57;5.97;;;20.70;99.90;;;;;;5051000;28;20048;-67
2023/04/22 10:38:52;;;;;;;5.60;5.00;;;20.90;99.90;;;;;;5048162;28;20044;-66
2023/04/22 10:41:23;;;;;;;6.38;5.72;;;21.20;99.90;;;;;;5050819;28;20052;-65
2023/04/22 10:43:59;;;;;;;6.55;5.72;;;21.30;99.90;;;;;;5049717;28;20499;-66
2023/04/22 10:46:31;;;;;;;8.52;6.60;;;21.40;99.90;;;;;;5033340;28;20057;-65
2023/04/22 10:48:58;;;;;;;8.38;5.53;;;21.60;99.90;;;;;;5050369;28;20048;-65
2023/04/22 10:51:49;;;;;;;7.60;5.80;;;21.50;99.90;;;;;;5050609;28;20526;-65
2023/04/22 10:57:08;;;;;;;6.45;5.85;;;21.70;99.90;;;;;;5050921;28;20048;-67
2023/04/22 10:59:56;;;;;;;6.70;5.50;;;21.70;99.90;;;;;;5050075;28;20033;-65
2023/04/22 11:02:22;;;;;;;6.47;5.90;;;21.70;99.50;;;;;;5050054;28;20044;-65
2023/04/22 11:04:49;;;;;;;7.10;6.40;;;21.90;99.80;;;;;;5050599;28;20427;-64
2023/04/22 11:07:28;;;;;;;8.63;5.78;;;22.00;98.70;;;;;;5050413;28;20044;-66
2023/04/22 11:10:01;;;;;;;7.50;6.47;;;22.00;99.30;;;;;;5048101;28;20063;-64
2023/04/22 11:12:37;;;;;;;8.65;6.30;;;22.00;98.80;;;;;;5049987;28;20052;-63
2023/04/22 11:15:16;;;;;;;6.50;5.90;;;22.00;98.10;;;;;;5049163;28;20041;-64
2023/04/22 11:17:44;;;;;;;7.20;6.47;;;22.00;98.70;;;;;;5049328;28;20496;-63
2023/04/22 11:20:11;;;;;;;8.75;6.20;;;22.10;98.60;;;;;;5050028;28;20399;-66
2023/04/22 11:22:39;;;;;;;6.57;5.97;;;22.10;98.30;;;;;;5050971;28;20041;-65
2023/04/22 11:25:07;;;;;;;8.80;6.90;;;22.10;98.00;;;;;;5048616;28;20507;-65
2023/04/22 11:27:32;;;;;;;6.20;5.70;;;22.00;97.50;;;;;;5066241;28;20438;-63
2023/04/22 11:30:06;;;;;;;6.07;5.47;;;22.00;97.90;;;;;;5049013;28;20053;-64
2023/04/22 11:32:38;;;;;;;8.70;6.70;;;22.00;98.10;;;;;;5031399;28;20119;-65
2023/04/22 11:35:06;;;;;;;10.47;6.87;;;22.10;98.10;;;;;;5049291;28;20136;-64
2023/04/22 11:37:39;;;;;;;7.32;6.57;;;21.80;97.80;;;;;;5049232;28;20500;-66
2023/04/22 11:40:05;;;;;;;7.88;7.07;;;21.60;98.50;;;;;;5031281;28;20052;-65
2023/04/22 11:42:31;;;;;;;6.90;6.20;;;21.30;99.00;;;;;;5046616;28;20057;-66
2023/04/22 11:44:57;;;;;;;6.95;5.90;;;21.20;98.90;;;;;;5048044;28;20040;-65
2023/04/22 11:47:22;;;;;;;8.13;6.88;;;21.00;99.20;;;;;;5047904;28;20083;-65
2023/04/22 11:50:00;;;;;;;7.57;6.28;;;20.80;99.40;;;;;;5048608;28;20071;-65
2023/04/22 11:52:40;;;;;;;7.45;6.75;;;20.60;99.90;;;;;;5049301;28;21467;-63
2023/04/22 11:55:10;;;;;;;8.48;6.75;;;20.50;99.90;;;;;;5048272;28;20029;-67
2023/04/22 11:57:36;;;;;;;7.93;6.70;;;20.40;99.90;;;;;;5046639;28;20032;-64
2023/04/22 12:00:01;;;;;;;7.18;6.47;;;20.50;99.90;;;;;;5050217;28;20036;-64
2023/04/22 12:02:27;;;;;;;9.07;7.28;;;20.60;99.90;;;;;;5031387;28;20060;-65
2023/04/22 12:04:57;;;;;;;7.88;6.70;;;20.80;99.90;;;;;;5032386;28;20396;-63
2023/04/22 12:07:22;;;;;;;8.73;6.80;;;20.90;99.90;;;;;;5049072;28;20066;-65
2023/04/22 12:09:52;;;;;;;6.95;6.07;;;21.10;99.90;;;;;;5047112;28;20124;-64
2023/04/22 12:12:22;;;;;;;8.27;6.07;;;21.20;99.60;;;;;;5047168;28;20340;-62
2023/04/22 12:14:48;;;;;;;7.97;6.32;;;21.40;99.90;;;;;;5048572;28;20049;-65
2023/04/22 12:17:15;;;;;;;7.38;6.63;;;21.70;99.40;;;;;;5030836;28;20048;-63
2023/04/22 12:19:46;;;;;;;8.18;5.55;;;21.90;99.40;;;;;;5048226;28;20032;-63
2023/04/22 12:22:12;;;;;;;6.32;5.45;;;21.90;99.00;;;;;;5048179;28;20044;-66
2023/04/22 12:24:45;;;;;;;6.43;5.75;;;21.70;98.70;;;;;;5030607;28;20103;-63
2023/04/22 12:27:10;;;;;;;7.53;5.53;;;21.30;98.20;;;;;;5048272;28;20125;-63
2023/04/22 12:29:36;;;;;;;6.55;5.85;;;21.00;98.70;;;;;;5064640;28;20111;-65
2023/04/22 12:32:01;;;;;;;7.18;6.07;;;20.80;99.20;;;;;;5049738;28;20115;-64
2023/04/22 12:34:27;;;;;;;6.38;5.53;;;20.60;98.90;;;;;;5048703;28;20049;-64
2023/04/22 12:36:55;;;;;;;6.70;5.97;;;20.40;99.30;;;;;;5048486;28;20045;-66
2023/04/22 12:39:20;;;;;;;6.35;5.00;;;20.60;99.90;;;;;;5047655;28;20147;-64
2023/04/22 12:41:49;;;;;;;7.18;5.35;;;20.80;99.90;;;;;;5048643;28;20060;-66
2023/04/22 12:44:15;;;;;;;6.68;5.60;;;20.90;99.30;;;;;;5047152;28;20059;-65